• Join FlightAware (Why Join?)
  • Login
  • US Flag 
03:51AM EDT


 

Airport Tracker/Info


-or-


 

Live Flight TrackerFlight Track Log ✈ RAX1073 ✈ 02-May-2013 ✈ KGSP - KCAK

Flight Track Log - Related Links

Times and Time Zones

All times are in EDT time to prevent confusion due to time zone crossing. See the RAX1073 flight status page for this flight to view local times or setup timezone preferences in your user account.

Time Position Orientation Groundspeed Altitude Reporting Facility
EDT Latitude Longitude Course Direction KTS MPH feet Rate Location/Type
10:20PM 34.9839 -82.1475 North 268 308 6,400  Level Atlanta Center
10:21PM 35.0500 -82.1081 26° Northeast 280 322 9,100 2,700 Climbing Atlanta Center
10:22PM 35.1394 -82.0831 13° North 306 352 11,900 3,000 Climbing Atlanta Center
10:23PM 35.2247 -82.0633 11° North 316 364 15,200 3,000 Climbing Atlanta Center
10:24PM 35.3203 -82.0533 North 327 376 17,900 2,640 Climbing Atlanta Center
10:25PM 35.3194 -81.9333 North  Level FlightAware Approximate
10:25PM 35.4183 -82.0458 North 348 400 20,500  Level Atlanta Center
10:26PM 35.4161 -81.9333 North  Level FlightAware Approximate
10:26PM 35.5308 -82.0356 North 353 406 22,600  Level Atlanta Center
10:27PM 35.6392 -82.0253 North 374 430 24,400 2,280 Climbing Atlanta Center
10:28PM 35.7517 -82.0097 North 393 452 27,200 2,820 Climbing Atlanta Center
10:29PM 35.8536 -81.9942 North 381 438 30,100 2,160 Climbing Atlanta Center
10:30PM 35.9617 -81.9786 North 383 441 31,600 1,380 Climbing Atlanta Center
10:31PM 36.0742 -81.9656 North 400 460 32,900 660 Climbing Atlanta Center
10:32PM 36.1825 -81.9550 North 416 479 33,000  Climbing Atlanta Center
10:33PM 36.3156 -81.9361 North 431 496 33,000  Level Atlanta Center
10:34PM 36.4406 -81.9225 North 436 502 33,000  Level Atlanta Center
10:35PM 36.5633 -81.9089 North 441 507 33,000 60 Level Atlanta Center
10:36PM 36.6861 -81.8928 North 441 507 33,200 480 Climbing Atlanta Center
10:38PM 36.9333 -81.8692 North 452 520 34,500 960 Climbing Indianapolis Center
10:39PM 37.0564 -81.8597 North 445 512 36,100 1,200 Climbing Indianapolis Center
10:40PM 37.1792 -81.8486 North 443 510 37,000 420 Climbing Indianapolis Center
10:41PM 37.3053 -81.8342 North 456 525 37,000  Level Indianapolis Center
10:42PM 37.4292 -81.8200 North 451 519 37,000  Level Indianapolis Center
10:43PM 37.5797 -81.8058 North 461 531 37,000  Level Indianapolis Center
10:44PM 37.7061 -81.7919 North 457 526 37,000  Level Indianapolis Center
10:45PM 37.8317 -81.7761 North 453 521 37,000  Level Indianapolis Center
10:47PM 37.9594 -81.7606 North 456 525 37,000  Level Indianapolis Center
10:48PM 38.0861 -81.7592 360° North 462 532 37,000 -360 Level Indianapolis Center
10:49PM 38.2125 -81.7697 356° North 455 524 36,300 -840 Descending Indianapolis Center
10:50PM 38.3417 -81.7803 356° North 465 535 35,300 -960 Descending Indianapolis Center
10:51PM 38.4683 -81.7647 North 455 524 34,400 -1,080 Descending Indianapolis Center
10:52PM 38.5981 -81.7500 North 460 529 33,100 -1,260 Descending Indianapolis Center
10:53PM 38.7289 -81.7378 North 457 526 31,900 -1,020 Descending Indianapolis Center
10:54PM 38.8553 -81.7256 North 441 507 31,100 -840 Descending Indianapolis Center
10:55PM 38.9797 -81.7144 North 442 509 30,300 -780 Descending Indianapolis Center
10:56PM 39.1011 -81.6958 North 438 504 29,500 -900 Descending Indianapolis Center
10:57PM 39.2258 -81.6758 North 448 516 28,500 -1,020 Descending Indianapolis Center
10:58PM 39.3708 -81.6592 North 436 502 27,500 -840 Descending Indianapolis Center
10:59PM 39.4897 -81.6436 North 429 494 26,800 -720 Descending Indianapolis Center
11:00PM 39.6086 -81.6267 North 428 493 26,100 -780 Descending Indianapolis Center
11:00PM 39.6372 -81.6208 North 431 496 25,800 -1,140 Descending Cleveland Center
11:01PM 39.7667 -81.6039 North 431 496 24,700 -1,080 Descending Cleveland Center
11:02PM 39.8853 -81.5975 North 421 484 23,700 -3,900 Descending Cleveland Center
11:03PM 40.0022 -81.5831 North 421 484 17,000 -2,100 Descending Cleveland Center
11:04PM 40.0853 -81.5711 North 397 457 19,900 -480 Climbing Indianapolis Center
11:05PM 40.1950 -81.5517 North 394 453 16,200 -3,300 Descending Indianapolis Center
11:06PM 40.2950 -81.5375 North 360 414 13,200 -2,820 Descending Indianapolis Center
11:07PM 40.3822 -81.5217 North 317 365 10,500 -2,580 Descending Indianapolis Center
11:08PM 40.4619 -81.5039 10° North 293 337 8,000 -2,400 Descending Indianapolis Center
11:09PM 40.5425 -81.4914 North 289 333 5,700 -1,620 Descending Indianapolis Center
11:10PM 40.6225 -81.4639 15° North 261 300 4,700 -840 Descending Cleveland Center
11:11PM 40.6872 -81.4539 North 235 270 4,000 -540 Descending Cleveland Center
11:12PM 40.7603 -81.4300 14° North 247 284 3,700 -540 Descending Cleveland Center
11:13PM 40.8250 -81.4036 17° North 252 290 3,000 -540 Descending Cleveland Center
11:14PM 40.8794 -81.3906 10° North 208 239 2,700 -300 Descending Cleveland Center
11:16PM 40.9000 -81.4333 North  Level FlightAware Approximate
11:23PM 40.9151 -81.4436 North  Level Estimated
11:24PM 40.9151 -81.4436 North  Level Estimated
11:25PM 40.9151 -81.4436 North  Level Estimated